UAL429 KSAN-KLAX
Flight info
| Callsign | UAL429 |
|---|---|
| Flight time | 0h 23m |
| Altitude | 10000 |
| Route | KSAN CWARD2 SLI |
| Aircraft | B738/M-G/C |
Departure
| Time | 2026-04-20 01:13 |
|---|---|
| Airport | San Diego International Airport (KSAN) |
Arrival
| Time | 2026-04-20 01:36 |
|---|---|
| Airport | Los Angeles International Airport (KLAX) |
| Time | Latitude | Longitude | Altitude | Speed | Heading |
|---|---|---|---|---|---|
| 2026-04-20 00:59 | 32.73338 | -117.20183 | 22 ft | 0 kts | 84° |
| 2026-04-20 01:05 | 32.73336 | -117.20205 | 22 ft | 3 kts | 84° |
| 2026-04-20 01:05 | 32.73333 | -117.20233 | 22 ft | 3 kts | 84° |
| 2026-04-20 01:05 | 32.73331 | -117.20259 | 22 ft | 0 kts | 82° |
| 2026-04-20 01:05 | 32.73330 | -117.20262 | 22 ft | 0 kts | 70° |
| 2026-04-20 01:06 | 32.73329 | -117.20267 | 22 ft | 0 kts | 51° |
| 2026-04-20 01:07 | 32.73355 | -117.20268 | 22 ft | 9 kts | 347° |
| 2026-04-20 01:07 | 32.73441 | -117.20262 | 22 ft | 15 kts | 16° |
| 2026-04-20 01:08 | 32.73524 | -117.20164 | 22 ft | 20 kts | 78° |
| 2026-04-20 01:08 | 32.73525 | -117.20086 | 22 ft | 0 kts | 99° |
| 2026-04-20 01:08 | 32.73524 | -117.20083 | 22 ft | 0 kts | 99° |
| 2026-04-20 01:08 | 32.73524 | -117.20082 | 22 ft | 0 kts | 102° |
| 2026-04-20 01:09 | 32.73522 | -117.20073 | 22 ft | 3 kts | 105° |
| 2026-04-20 01:09 | 32.73519 | -117.20058 | 22 ft | 6 kts | 105° |
| 2026-04-20 01:09 | 32.73504 | -117.19992 | 22 ft | 8 kts | 105° |
| 2026-04-20 01:09 | 32.73484 | -117.19907 | 22 ft | 13 kts | 105° |
| 2026-04-20 01:10 | 32.73449 | -117.19781 | 23 ft | 18 kts | 108° |
| 2026-04-20 01:10 | 32.73361 | -117.19415 | 26 ft | 28 kts | 108° |
| 2026-04-20 01:10 | 32.73302 | -117.19174 | 25 ft | 33 kts | 106° |
| 2026-04-20 01:11 | 32.73235 | -117.18893 | 24 ft | 37 kts | 105° |
| 2026-04-20 01:11 | 32.73162 | -117.18600 | 23 ft | 35 kts | 105° |
| 2026-04-20 01:11 | 32.73100 | -117.18336 | 23 ft | 32 kts | 105° |
| 2026-04-20 01:11 | 32.73040 | -117.18089 | 23 ft | 30 kts | 107° |
| 2026-04-20 01:12 | 32.72980 | -117.17865 | 25 ft | 25 kts | 108° |
| 2026-04-20 01:12 | 32.72975 | -117.17690 | 28 ft | 19 kts | 64° |
| 2026-04-20 01:12 | 32.73045 | -117.17692 | 29 ft | 13 kts | 284° |
| 2026-04-20 01:12 | 32.73073 | -117.17821 | 26 ft | 24 kts | 289° |
| 2026-04-20 01:13 | 32.73209 | -117.18375 | 24 ft | 111 kts | 285° |
| 2026-04-20 01:13 | 32.73486 | -117.19527 | 121 ft | 169 kts | 288° |
| 2026-04-20 01:13 | 32.73966 | -117.20798 | 924 ft | 178 kts | 298° |
| 2026-04-20 01:13 | 32.74623 | -117.22030 | 1826 ft | 182 kts | 301° |
| 2026-04-20 01:14 | 32.75314 | -117.23373 | 2291 ft | 201 kts | 301° |
| 2026-04-20 01:14 | 32.76114 | -117.24857 | 2681 ft | 226 kts | 302° |
| 2026-04-20 01:14 | 32.77025 | -117.26519 | 3141 ft | 249 kts | 303° |
| 2026-04-20 01:14 | 32.77998 | -117.28293 | 3713 ft | 265 kts | 303° |
| 2026-04-20 01:15 | 32.79016 | -117.30145 | 4432 ft | 274 kts | 302° |
| 2026-04-20 01:15 | 32.80072 | -117.32022 | 5228 ft | 279 kts | 305° |
| 2026-04-20 01:15 | 32.81262 | -117.33864 | 6044 ft | 283 kts | 307° |
| 2026-04-20 01:15 | 32.82475 | -117.35716 | 6850 ft | 287 kts | 306° |
| 2026-04-20 01:16 | 32.83680 | -117.37594 | 7589 ft | 292 kts | 306° |
| 2026-04-20 01:16 | 32.84914 | -117.39517 | 8366 ft | 295 kts | 306° |
| 2026-04-20 01:16 | 32.86176 | -117.41467 | 9066 ft | 301 kts | 306° |
| 2026-04-20 01:16 | 32.87449 | -117.43434 | 9756 ft | 305 kts | 306° |
| 2026-04-20 01:17 | 32.88764 | -117.45480 | 9963 ft | 314 kts | 306° |
| 2026-04-20 01:17 | 32.90082 | -117.47528 | 9967 ft | 307 kts | 306° |
| 2026-04-20 01:17 | 32.91389 | -117.49559 | 9967 ft | 322 kts | 306° |
| 2026-04-20 01:17 | 32.92801 | -117.51765 | 9987 ft | 347 kts | 306° |
| 2026-04-20 01:18 | 32.94318 | -117.54132 | 9960 ft | 365 kts | 306° |
| 2026-04-20 01:18 | 32.95860 | -117.56525 | 9965 ft | 363 kts | 306° |
| 2026-04-20 01:18 | 32.97395 | -117.58905 | 9962 ft | 362 kts | 306° |
| 2026-04-20 01:18 | 32.98925 | -117.61285 | 9966 ft | 361 kts | 306° |
| 2026-04-20 01:19 | 33.00436 | -117.63648 | 9970 ft | 361 kts | 306° |
| 2026-04-20 01:19 | 33.01942 | -117.66009 | 9976 ft | 359 kts | 306° |
| 2026-04-20 01:19 | 33.03468 | -117.68398 | 9973 ft | 360 kts | 306° |
| 2026-04-20 01:19 | 33.04983 | -117.70763 | 9960 ft | 361 kts | 306° |
| 2026-04-20 01:20 | 33.06582 | -117.73074 | 9950 ft | 361 kts | 314° |
| 2026-04-20 01:20 | 33.08456 | -117.75063 | 9978 ft | 364 kts | 319° |
| 2026-04-20 01:20 | 33.10400 | -117.76988 | 9969 ft | 364 kts | 319° |
| 2026-04-20 01:20 | 33.12326 | -117.78952 | 9967 ft | 362 kts | 318° |
| 2026-04-20 01:21 | 33.14239 | -117.80917 | 9967 ft | 362 kts | 318° |
| 2026-04-20 01:21 | 33.16139 | -117.82855 | 9963 ft | 363 kts | 318° |
| 2026-04-20 01:21 | 33.18074 | -117.84797 | 9972 ft | 364 kts | 322° |
| 2026-04-20 01:21 | 33.20273 | -117.86325 | 9971 ft | 364 kts | 339° |
| 2026-04-20 01:22 | 33.22730 | -117.87077 | 9960 ft | 363 kts | 349° |
| 2026-04-20 01:22 | 33.25227 | -117.87629 | 9962 ft | 365 kts | 349° |
| 2026-04-20 01:22 | 33.27692 | -117.88237 | 9958 ft | 364 kts | 348° |
| 2026-04-20 01:22 | 33.30135 | -117.88858 | 9950 ft | 347 kts | 348° |
| 2026-04-20 01:23 | 33.32429 | -117.89431 | 9960 ft | 328 kts | 348° |
| 2026-04-20 01:23 | 33.34621 | -117.89976 | 9956 ft | 311 kts | 348° |
| 2026-04-20 01:23 | 33.36692 | -117.90494 | 9945 ft | 298 kts | 348° |
| 2026-04-20 01:23 | 33.38705 | -117.91013 | 9767 ft | 301 kts | 346° |
| 2026-04-20 01:24 | 33.40741 | -117.91703 | 9568 ft | 301 kts | 342° |
| 2026-04-20 01:24 | 33.42735 | -117.92475 | 9390 ft | 299 kts | 342° |
| 2026-04-20 01:24 | 33.44717 | -117.93203 | 9161 ft | 297 kts | 343° |
| 2026-04-20 01:24 | 33.46689 | -117.93917 | 8942 ft | 296 kts | 343° |
| 2026-04-20 01:25 | 33.48651 | -117.94636 | 8755 ft | 296 kts | 343° |
| 2026-04-20 01:25 | 33.50615 | -117.95354 | 8546 ft | 294 kts | 343° |
| 2026-04-20 01:25 | 33.52582 | -117.96069 | 8312 ft | 294 kts | 343° |
| 2026-04-20 01:25 | 33.54537 | -117.96780 | 8111 ft | 294 kts | 343° |
| 2026-04-20 01:26 | 33.56496 | -117.97495 | 7902 ft | 292 kts | 343° |
| 2026-04-20 01:26 | 33.58442 | -117.98205 | 7692 ft | 291 kts | 343° |
| 2026-04-20 01:26 | 33.60371 | -117.98907 | 7486 ft | 291 kts | 343° |
| 2026-04-20 01:26 | 33.62311 | -117.99614 | 7274 ft | 290 kts | 343° |
| 2026-04-20 01:27 | 33.64250 | -118.00321 | 7063 ft | 288 kts | 343° |
| 2026-04-20 01:27 | 33.66149 | -118.01015 | 6971 ft | 285 kts | 343° |
| 2026-04-20 01:27 | 33.68050 | -118.01710 | 6969 ft | 288 kts | 343° |
| 2026-04-20 01:27 | 33.69981 | -118.02415 | 6846 ft | 290 kts | 343° |
| 2026-04-20 01:28 | 33.71908 | -118.03119 | 6615 ft | 287 kts | 344° |
| 2026-04-20 01:28 | 33.73797 | -118.03809 | 6393 ft | 285 kts | 344° |
| 2026-04-20 01:28 | 33.75686 | -118.04501 | 6167 ft | 281 kts | 344° |
| 2026-04-20 01:28 | 33.77537 | -118.05180 | 5945 ft | 270 kts | 344° |
| 2026-04-20 01:29 | 33.79249 | -118.05884 | 5744 ft | 252 kts | 339° |
| 2026-04-20 01:29 | 33.80825 | -118.06661 | 5514 ft | 240 kts | 339° |
| 2026-04-20 01:29 | 33.82372 | -118.07404 | 5294 ft | 239 kts | 339° |
| 2026-04-20 01:29 | 33.83900 | -118.08153 | 5077 ft | 237 kts | 338° |
| 2026-04-20 01:30 | 33.85421 | -118.08907 | 4985 ft | 234 kts | 338° |
| 2026-04-20 01:30 | 33.86950 | -118.09663 | 4974 ft | 237 kts | 338° |
| 2026-04-20 01:30 | 33.88495 | -118.10374 | 4977 ft | 239 kts | 347° |
| 2026-04-20 01:30 | 33.90123 | -118.10596 | 4928 ft | 236 kts | 359° |
| 2026-04-20 01:31 | 33.91780 | -118.10687 | 4664 ft | 235 kts | 358° |
| 2026-04-20 01:31 | 33.93383 | -118.10799 | 4390 ft | 231 kts | 355° |
| 2026-04-20 01:31 | 33.94902 | -118.11396 | 4109 ft | 232 kts | 326° |
| 2026-04-20 01:31 | 33.95951 | -118.12847 | 3841 ft | 230 kts | 292° |
| 2026-04-20 01:32 | 33.96169 | -118.14706 | 3617 ft | 226 kts | 261° |
| 2026-04-20 01:32 | 33.95918 | -118.16559 | 3560 ft | 225 kts | 262° |
| 2026-04-20 01:32 | 33.95744 | -118.18416 | 3291 ft | 217 kts | 262° |
| 2026-04-20 01:32 | 33.95561 | -118.20160 | 3025 ft | 208 kts | 263° |
| 2026-04-20 01:33 | 33.95397 | -118.21859 | 2774 ft | 200 kts | 263° |
| 2026-04-20 01:33 | 33.95235 | -118.23424 | 2504 ft | 184 kts | 262° |
| 2026-04-20 01:33 | 33.95090 | -118.24902 | 2267 ft | 176 kts | 262° |
| 2026-04-20 01:33 | 33.94939 | -118.26372 | 2036 ft | 176 kts | 262° |
| 2026-04-20 01:34 | 33.94798 | -118.27798 | 1785 ft | 163 kts | 262° |
| 2026-04-20 01:34 | 33.94666 | -118.29087 | 1577 ft | 151 kts | 262° |
| 2026-04-20 01:34 | 33.94541 | -118.30328 | 1410 ft | 150 kts | 262° |
| 2026-04-20 01:34 | 33.94416 | -118.31571 | 1210 ft | 148 kts | 262° |
| 2026-04-20 01:35 | 33.94291 | -118.32804 | 1012 ft | 147 kts | 262° |
| 2026-04-20 01:35 | 33.94166 | -118.34016 | 830 ft | 147 kts | 262° |
| 2026-04-20 01:35 | 33.94046 | -118.35237 | 632 ft | 149 kts | 262° |
| 2026-04-20 01:35 | 33.93919 | -118.36478 | 432 ft | 149 kts | 262° |
| 2026-04-20 01:36 | 33.93787 | -118.37698 | 229 ft | 146 kts | 261° |
| 2026-04-20 01:36 | 33.93674 | -118.38892 | 105 ft | 128 kts | 263° |
| 2026-04-20 01:36 | 33.93601 | -118.39671 | 111 ft | 61 kts | 266° |
| 2026-04-20 01:36 | 33.93649 | -118.39946 | 117 ft | 11 kts | 299° |
| 2026-04-20 01:37 | 33.93657 | -118.39969 | 117 ft | 7 kts | 289° |
| 2026-04-20 01:37 | 33.93661 | -118.40084 | 119 ft | 20 kts | 267° |
| 2026-04-20 01:37 | 33.93646 | -118.40288 | 121 ft | 26 kts | 278° |
| 2026-04-20 01:37 | 33.93761 | -118.40434 | 123 ft | 22 kts | 352° |
| 2026-04-20 01:38 | 33.93848 | -118.40338 | 121 ft | 17 kts | 76° |
| 2026-04-20 01:38 | 33.93862 | -118.40202 | 121 ft | 15 kts | 85° |
| 2026-04-20 01:38 | 33.93878 | -118.40073 | 119 ft | 14 kts | 52° |
| 2026-04-20 01:38 | 33.93966 | -118.40057 | 119 ft | 12 kts | 352° |
| 2026-04-20 01:39 | 33.94051 | -118.40075 | 118 ft | 8 kts | 1° |
| 2026-04-20 01:39 | 33.94105 | -118.40053 | 118 ft | 7 kts | 53° |
| 2026-04-20 01:39 | 33.94112 | -118.40028 | 118 ft | 0 kts | 84° |